sensor_id;sensor_type;location;lat;lon;timestamp;temperature;humidity
11087;DHT22;5597;47.588;9.642;2022-12-24T00:00:55;11.40;99.90
11087;DHT22;5597;47.588;9.642;2022-12-24T00:03:21;11.40;99.90
11087;DHT22;5597;47.588;9.642;2022-12-24T00:05:46;11.50;99.90
11087;DHT22;5597;47.588;9.642;2022-12-24T00:08:12;11.40;99.90
11087;DHT22;5597;47.588;9.642;2022-12-24T00:10:37;11.40;99.90
11087;DHT22;5597;47.588;9.642;2022-12-24T00:13:03;11.40;99.90
11087;DHT22;5597;47.588;9.642;2022-12-24T00:15:28;11.40;99.90
11087;DHT22;5597;47.588;9.642;2022-12-24T00:17:54;11.40;99.90
11087;DHT22;5597;47.588;9.642;2022-12-24T00:20:20;11.40;99.90
11087;DHT22;5597;47.588;9.642;2022-12-24T00:22:45;11.40;99.90
11087;DHT22;5597;47.588;9.642;2022-12-24T00:25:11;11.40;99.90
11087;DHT22;5597;47.588;9.642;2022-12-24T00:27:36;11.30;99.90
11087;DHT22;5597;47.588;9.642;2022-12-24T00:30:02;11.30;99.90
11087;DHT22;5597;47.588;9.642;2022-12-24T00:32:28;11.20;99.90
11087;DHT22;5597;47.588;9.642;2022-12-24T00:34:54;11.20;99.90
11087;DHT22;5597;47.588;9.642;2022-12-24T00:37:19;11.20;99.90
11087;DHT22;5597;47.588;9.642;2022-12-24T00:39:45;11.20;99.90
11087;DHT22;5597;47.588;9.642;2022-12-24T00:42:10;11.10;99.90
11087;DHT22;5597;47.588;9.642;2022-12-24T00:44:36;11.10;99.90
11087;DHT22;5597;47.588;9.642;2022-12-24T00:47:01;11.10;99.90
11087;DHT22;5597;47.588;9.642;2022-12-24T00:49:27;11.10;99.90
11087;DHT22;5597;47.588;9.642;2022-12-24T00:51:53;11.10;99.90
11087;DHT22;5597;47.588;9.642;2022-12-24T00:54:18;11.10;99.90
11087;DHT22;5597;47.588;9.642;2022-12-24T00:56:44;11.00;99.90
11087;DHT22;5597;47.588;9.642;2022-12-24T00:59:09;11.00;99.90
11087;DHT22;5597;47.588;9.642;2022-12-24T01:01:35;11.00;99.90
11087;DHT22;5597;47.588;9.642;2022-12-24T01:04:01;10.90;99.90
11087;DHT22;5597;47.588;9.642;2022-12-24T01:06:45;10.90;99.90
11087;DHT22;5597;47.588;9.642;2022-12-24T01:09:11;10.90;99.90
11087;DHT22;5597;47.588;9.642;2022-12-24T01:11:36;10.80;99.90
11087;DHT22;5597;47.588;9.642;2022-12-24T01:14:02;10.80;99.90
11087;DHT22;5597;47.588;9.642;2022-12-24T01:16:28;10.80;99.90
11087;DHT22;5597;47.588;9.642;2022-12-24T01:18:53;10.80;99.90
11087;DHT22;5597;47.588;9.642;2022-12-24T01:21:19;10.70;99.90
11087;DHT22;5597;47.588;9.642;2022-12-24T01:23:44;10.70;99.90
11087;DHT22;5597;47.588;9.642;2022-12-24T01:26:10;10.70;99.90
11087;DHT22;5597;47.588;9.642;2022-12-24T01:28:36;10.70;99.90
11087;DHT22;5597;47.588;9.642;2022-12-24T01:31:08;10.70;99.90
11087;DHT22;5597;47.588;9.642;2022-12-24T01:33:34;10.60;99.90
11087;DHT22;5597;47.588;9.642;2022-12-24T01:36:02;10.60;99.90
11087;DHT22;5597;47.588;9.642;2022-12-24T01:38:27;10.60;99.90
11087;DHT22;5597;47.588;9.642;2022-12-24T01:40:53;10.50;99.90
11087;DHT22;5597;47.588;9.642;2022-12-24T01:43:37;10.50;99.90
11087;DHT22;5597;47.588;9.642;2022-12-24T01:46:23;10.50;99.90
11087;DHT22;5597;47.588;9.642;2022-12-24T01:48:53;10.40;99.90
11087;DHT22;5597;47.588;9.642;2022-12-24T01:54:02;10.40;99.90
11087;DHT22;5597;47.588;9.642;2022-12-24T01:56:30;10.40;99.90
11087;DHT22;5597;47.588;9.642;2022-12-24T01:59:03;10.30;99.90
11087;DHT22;5597;47.588;9.642;2022-12-24T02:01:30;10.30;99.90
11087;DHT22;5597;47.588;9.642;2022-12-24T02:03:56;10.30;99.90
11087;DHT22;5597;47.588;9.642;2022-12-24T02:06:22;10.30;99.90
11087;DHT22;5597;47.588;9.642;2022-12-24T02:08:48;10.30;99.90
11087;DHT22;5597;47.588;9.642;2022-12-24T02:11:19;10.30;99.90
11087;DHT22;5597;47.588;9.642;2022-12-24T02:13:50;10.30;99.90
11087;DHT22;5597;47.588;9.642;2022-12-24T02:18:55;10.30;99.90
11087;DHT22;5597;47.588;9.642;2022-12-24T02:32:43;10.20;99.90
11087;DHT22;5597;47.588;9.642;2022-12-24T02:35:14;10.20;99.90
11087;DHT22;5597;47.588;9.642;2022-12-24T02:37:47;10.20;99.90
11087;DHT22;5597;47.588;9.642;2022-12-24T02:40:25;10.30;99.90
11087;DHT22;5597;47.588;9.642;2022-12-24T02:42:56;10.30;99.90
11087;DHT22;5597;47.588;9.642;2022-12-24T02:45:29;10.30;99.90
11087;DHT22;5597;47.588;9.642;2022-12-24T02:47:55;10.30;99.90
11087;DHT22;5597;47.588;9.642;2022-12-24T02:50:22;10.30;99.90
11087;DHT22;5597;47.588;9.642;2022-12-24T02:52:48;10.30;99.90
11087;DHT22;5597;47.588;9.642;2022-12-24T03:00:26;10.30;99.90
11087;DHT22;5597;47.588;9.642;2022-12-24T03:06:21;10.20;99.90
11087;DHT22;5597;47.588;9.642;2022-12-24T03:08:41;10.20;99.90
11087;DHT22;5597;47.588;9.642;2022-12-24T03:11:11;10.20;99.90
11087;DHT22;5597;47.588;9.642;2022-12-24T03:13:37;10.20;99.90
11087;DHT22;5597;47.588;9.642;2022-12-24T03:16:06;10.20;99.90
11087;DHT22;5597;47.588;9.642;2022-12-24T03:18:33;10.10;99.90
11087;DHT22;5597;47.588;9.642;2022-12-24T03:24:03;10.00;99.90
11087;DHT22;5597;47.588;9.642;2022-12-24T03:26:30;10.00;99.90
11087;DHT22;5597;47.588;9.642;2022-12-24T03:28:57;10.00;99.90
11087;DHT22;5597;47.588;9.642;2022-12-24T03:31:23;9.90;99.90
11087;DHT22;5597;47.588;9.642;2022-12-24T03:33:49;9.90;99.90
11087;DHT22;5597;47.588;9.642;2022-12-24T03:36:15;9.90;99.90
11087;DHT22;5597;47.588;9.642;2022-12-24T03:38:40;9.90;99.90
11087;DHT22;5597;47.588;9.642;2022-12-24T03:41:06;9.90;99.90
11087;DHT22;5597;47.588;9.642;2022-12-24T03:43:32;9.90;99.90
11087;DHT22;5597;47.588;9.642;2022-12-24T03:45:57;9.90;99.90
11087;DHT22;5597;47.588;9.642;2022-12-24T03:48:27;9.90;99.90
11087;DHT22;5597;47.588;9.642;2022-12-24T03:50:52;9.90;99.90
11087;DHT22;5597;47.588;9.642;2022-12-24T03:53:18;9.90;99.90
11087;DHT22;5597;47.588;9.642;2022-12-24T03:55:44;9.90;99.90
11087;DHT22;5597;47.588;9.642;2022-12-24T03:58:09;9.90;99.90
11087;DHT22;5597;47.588;9.642;2022-12-24T04:00:35;9.90;99.90
11087;DHT22;5597;47.588;9.642;2022-12-24T04:03:00;9.90;99.90
11087;DHT22;5597;47.588;9.642;2022-12-24T04:05:26;9.90;99.90
11087;DHT22;5597;47.588;9.642;2022-12-24T04:07:51;9.90;99.90
11087;DHT22;5597;47.588;9.642;2022-12-24T04:10:17;9.90;99.90
11087;DHT22;5597;47.588;9.642;2022-12-24T04:12:42;9.90;99.90
11087;DHT22;5597;47.588;9.642;2022-12-24T04:15:09;9.90;99.90
11087;DHT22;5597;47.588;9.642;2022-12-24T04:17:34;9.90;99.90
11087;DHT22;5597;47.588;9.642;2022-12-24T04:20:00;10.00;99.90
11087;DHT22;5597;47.588;9.642;2022-12-24T04:22:25;10.10;99.90
11087;DHT22;5597;47.588;9.642;2022-12-24T04:24:51;10.10;99.90
11087;DHT22;5597;47.588;9.642;2022-12-24T04:27:17;10.10;99.90
11087;DHT22;5597;47.588;9.642;2022-12-24T04:29:42;10.10;99.90
11087;DHT22;5597;47.588;9.642;2022-12-24T04:32:09;10.20;99.90
11087;DHT22;5597;47.588;9.642;2022-12-24T04:34:35;10.20;99.90
11087;DHT22;5597;47.588;9.642;2022-12-24T04:37:01;10.20;99.90
11087;DHT22;5597;47.588;9.642;2022-12-24T04:39:27;10.20;99.90
11087;DHT22;5597;47.588;9.642;2022-12-24T04:41:52;10.20;99.90
11087;DHT22;5597;47.588;9.642;2022-12-24T04:44:18;10.20;99.90
11087;DHT22;5597;47.588;9.642;2022-12-24T04:46:44;10.10;99.90
11087;DHT22;5597;47.588;9.642;2022-12-24T04:49:09;10.10;99.90
11087;DHT22;5597;47.588;9.642;2022-12-24T04:51:35;10.00;99.90
11087;DHT22;5597;47.588;9.642;2022-12-24T04:54:01;10.00;99.90
11087;DHT22;5597;47.588;9.642;2022-12-24T04:56:30;9.90;99.90
11087;DHT22;5597;47.588;9.642;2022-12-24T04:58:56;9.90;99.90
11087;DHT22;5597;47.588;9.642;2022-12-24T05:01:26;9.80;99.90
11087;DHT22;5597;47.588;9.642;2022-12-24T05:03:52;9.80;99.90
11087;DHT22;5597;47.588;9.642;2022-12-24T05:06:22;9.80;99.90
11087;DHT22;5597;47.588;9.642;2022-12-24T05:08:48;9.80;99.90
11087;DHT22;5597;47.588;9.642;2022-12-24T05:11:14;9.80;99.90
11087;DHT22;5597;47.588;9.642;2022-12-24T05:13:41;9.80;99.90
11087;DHT22;5597;47.588;9.642;2022-12-24T05:16:07;9.80;99.90
11087;DHT22;5597;47.588;9.642;2022-12-24T05:18:33;9.80;99.90
11087;DHT22;5597;47.588;9.642;2022-12-24T05:20:59;9.80;99.90
11087;DHT22;5597;47.588;9.642;2022-12-24T05:23:24;9.80;99.90
11087;DHT22;5597;47.588;9.642;2022-12-24T05:28:56;9.70;99.90
11087;DHT22;5597;47.588;9.642;2022-12-24T05:31:24;9.70;99.90
11087;DHT22;5597;47.588;9.642;2022-12-24T05:33:49;9.60;99.90
11087;DHT22;5597;47.588;9.642;2022-12-24T05:36:16;9.60;99.90
11087;DHT22;5597;47.588;9.642;2022-12-24T05:38:41;9.50;99.90
11087;DHT22;5597;47.588;9.642;2022-12-24T05:41:07;9.50;99.90
11087;DHT22;5597;47.588;9.642;2022-12-24T05:43:34;9.40;99.90
11087;DHT22;5597;47.588;9.642;2022-12-24T05:46:01;9.40;99.90
11087;DHT22;5597;47.588;9.642;2022-12-24T05:48:27;9.30;99.90
11087;DHT22;5597;47.588;9.642;2022-12-24T05:50:54;9.30;99.90
11087;DHT22;5597;47.588;9.642;2022-12-24T05:53:19;9.30;99.90
11087;DHT22;5597;47.588;9.642;2022-12-24T05:55:45;9.20;99.90
11087;DHT22;5597;47.588;9.642;2022-12-24T05:58:11;9.20;99.90
11087;DHT22;5597;47.588;9.642;2022-12-24T06:00:36;9.10;99.90
11087;DHT22;5597;47.588;9.642;2022-12-24T06:03:02;9.10;99.90
11087;DHT22;5597;47.588;9.642;2022-12-24T06:05:28;9.10;99.90
11087;DHT22;5597;47.588;9.642;2022-12-24T06:07:53;9.00;99.90
11087;DHT22;5597;47.588;9.642;2022-12-24T06:10:19;9.00;99.90
11087;DHT22;5597;47.588;9.642;2022-12-24T06:12:44;9.00;99.90
11087;DHT22;5597;47.588;9.642;2022-12-24T06:15:10;8.90;99.90
11087;DHT22;5597;47.588;9.642;2022-12-24T06:17:36;8.90;99.90
11087;DHT22;5597;47.588;9.642;2022-12-24T06:20:02;8.90;99.90
11087;DHT22;5597;47.588;9.642;2022-12-24T06:22:27;8.80;99.90
11087;DHT22;5597;47.588;9.642;2022-12-24T06:24:53;8.80;99.90
11087;DHT22;5597;47.588;9.642;2022-12-24T06:27:19;8.80;99.90
11087;DHT22;5597;47.588;9.642;2022-12-24T06:29:44;8.80;99.90
11087;DHT22;5597;47.588;9.642;2022-12-24T06:32:10;8.80;99.90
11087;DHT22;5597;47.588;9.642;2022-12-24T06:34:36;8.80;99.90
11087;DHT22;5597;47.588;9.642;2022-12-24T06:37:01;8.70;99.90
11087;DHT22;5597;47.588;9.642;2022-12-24T06:39:27;8.80;99.90
11087;DHT22;5597;47.588;9.642;2022-12-24T06:41:53;8.70;99.90
11087;DHT22;5597;47.588;9.642;2022-12-24T06:44:18;8.70;99.90
11087;DHT22;5597;47.588;9.642;2022-12-24T06:46:44;8.80;99.90
11087;DHT22;5597;47.588;9.642;2022-12-24T06:49:09;8.70;99.90
11087;DHT22;5597;47.588;9.642;2022-12-24T06:51:35;8.70;99.90
11087;DHT22;5597;47.588;9.642;2022-12-24T06:54:01;8.70;99.90
11087;DHT22;5597;47.588;9.642;2022-12-24T06:56:26;8.70;99.90
11087;DHT22;5597;47.588;9.642;2022-12-24T06:58:52;8.70;99.90
11087;DHT22;5597;47.588;9.642;2022-12-24T07:01:19;8.70;99.90
11087;DHT22;5597;47.588;9.642;2022-12-24T07:03:45;8.70;99.90
11087;DHT22;5597;47.588;9.642;2022-12-24T07:06:19;8.70;99.90
11087;DHT22;5597;47.588;9.642;2022-12-24T07:08:45;8.60;99.90
11087;DHT22;5597;47.588;9.642;2022-12-24T07:11:11;8.60;99.90
11087;DHT22;5597;47.588;9.642;2022-12-24T07:13:37;8.50;99.90
11087;DHT22;5597;47.588;9.642;2022-12-24T07:16:03;8.50;99.90
11087;DHT22;5597;47.588;9.642;2022-12-24T07:18:29;8.50;99.90
11087;DHT22;5597;47.588;9.642;2022-12-24T07:20:55;8.40;99.90
11087;DHT22;5597;47.588;9.642;2022-12-24T07:23:21;8.40;99.90
11087;DHT22;5597;47.588;9.642;2022-12-24T07:25:47;8.40;99.90
11087;DHT22;5597;47.588;9.642;2022-12-24T07:28:13;8.40;99.90
11087;DHT22;5597;47.588;9.642;2022-12-24T07:30:38;8.40;99.90
11087;DHT22;5597;47.588;9.642;2022-12-24T07:33:04;8.30;99.90
11087;DHT22;5597;47.588;9.642;2022-12-24T07:35:30;8.30;99.90
11087;DHT22;5597;47.588;9.642;2022-12-24T07:37:55;8.30;99.90
11087;DHT22;5597;47.588;9.642;2022-12-24T07:42:49;8.30;99.90
11087;DHT22;5597;47.588;9.642;2022-12-24T07:45:14;8.20;99.90
11087;DHT22;5597;47.588;9.642;2022-12-24T07:47:40;8.20;99.90
11087;DHT22;5597;47.588;9.642;2022-12-24T07:50:06;8.20;99.90
11087;DHT22;5597;47.588;9.642;2022-12-24T07:52:32;8.20;99.90
11087;DHT22;5597;47.588;9.642;2022-12-24T07:54:57;8.20;99.90
11087;DHT22;5597;47.588;9.642;2022-12-24T07:57:23;8.20;99.90
11087;DHT22;5597;47.588;9.642;2022-12-24T07:59:48;8.20;99.90
11087;DHT22;5597;47.588;9.642;2022-12-24T08:02:14;8.20;99.90
11087;DHT22;5597;47.588;9.642;2022-12-24T08:04:40;8.20;99.90
11087;DHT22;5597;47.588;9.642;2022-12-24T08:07:06;8.20;99.90
11087;DHT22;5597;47.588;9.642;2022-12-24T08:09:33;8.20;99.90
11087;DHT22;5597;47.588;9.642;2022-12-24T08:11:59;8.20;99.90
11087;DHT22;5597;47.588;9.642;2022-12-24T08:14:27;8.20;99.90
11087;DHT22;5597;47.588;9.642;2022-12-24T08:16:53;8.20;99.90
11087;DHT22;5597;47.588;9.642;2022-12-24T08:19:18;8.20;99.90
11087;DHT22;5597;47.588;9.642;2022-12-24T08:21:44;8.20;99.90
11087;DHT22;5597;47.588;9.642;2022-12-24T08:24:09;8.20;99.90
11087;DHT22;5597;47.588;9.642;2022-12-24T08:26:35;8.20;99.90
11087;DHT22;5597;47.588;9.642;2022-12-24T08:29:01;8.20;99.90
11087;DHT22;5597;47.588;9.642;2022-12-24T08:31:27;8.20;99.90
11087;DHT22;5597;47.588;9.642;2022-12-24T08:33:53;8.20;99.90
11087;DHT22;5597;47.588;9.642;2022-12-24T08:36:18;8.20;99.90
11087;DHT22;5597;47.588;9.642;2022-12-24T08:38:44;8.20;99.90
11087;DHT22;5597;47.588;9.642;2022-12-24T08:41:10;8.20;99.90
11087;DHT22;5597;47.588;9.642;2022-12-24T08:43:35;8.20;99.90
11087;DHT22;5597;47.588;9.642;2022-12-24T08:46:03;8.20;99.90
11087;DHT22;5597;47.588;9.642;2022-12-24T08:48:29;8.20;99.90
11087;DHT22;5597;47.588;9.642;2022-12-24T08:50:55;8.20;99.90
11087;DHT22;5597;47.588;9.642;2022-12-24T08:53:20;8.20;99.90
11087;DHT22;5597;47.588;9.642;2022-12-24T08:55:46;8.20;99.90
11087;DHT22;5597;47.588;9.642;2022-12-24T08:58:12;8.10;99.90
11087;DHT22;5597;47.588;9.642;2022-12-24T09:00:38;8.10;99.90
11087;DHT22;5597;47.588;9.642;2022-12-24T09:03:04;8.20;99.90
11087;DHT22;5597;47.588;9.642;2022-12-24T09:05:29;8.10;99.90
11087;DHT22;5597;47.588;9.642;2022-12-24T09:07:55;8.10;99.90
11087;DHT22;5597;47.588;9.642;2022-12-24T09:10:21;8.10;99.90
11087;DHT22;5597;47.588;9.642;2022-12-24T09:12:46;8.10;99.90
11087;DHT22;5597;47.588;9.642;2022-12-24T09:15:12;8.10;99.90
11087;DHT22;5597;47.588;9.642;2022-12-24T09:17:38;8.10;99.90
11087;DHT22;5597;47.588;9.642;2022-12-24T09:20:04;8.20;99.90
11087;DHT22;5597;47.588;9.642;2022-12-24T09:22:33;8.10;99.90
11087;DHT22;5597;47.588;9.642;2022-12-24T09:24:58;8.10;99.90
11087;DHT22;5597;47.588;9.642;2022-12-24T09:27:24;8.10;99.90
11087;DHT22;5597;47.588;9.642;2022-12-24T09:29:50;8.20;99.90
11087;DHT22;5597;47.588;9.642;2022-12-24T09:32:15;8.10;99.90
11087;DHT22;5597;47.588;9.642;2022-12-24T09:34:41;8.10;99.90
11087;DHT22;5597;47.588;9.642;2022-12-24T09:37:06;8.10;99.90
11087;DHT22;5597;47.588;9.642;2022-12-24T09:39:32;8.10;99.90
11087;DHT22;5597;47.588;9.642;2022-12-24T09:44:53;8.10;99.90
11087;DHT22;5597;47.588;9.642;2022-12-24T09:47:46;8.10;99.90
11087;DHT22;5597;47.588;9.642;2022-12-24T09:50:38;8.10;99.90
11087;DHT22;5597;47.588;9.642;2022-12-24T09:53:16;8.10;99.90
11087;DHT22;5597;47.588;9.642;2022-12-24T09:55:46;8.10;99.90
11087;DHT22;5597;47.588;9.642;2022-12-24T09:58:26;8.20;99.90
11087;DHT22;5597;47.588;9.642;2022-12-24T10:00:55;8.20;99.90
11087;DHT22;5597;47.588;9.642;2022-12-24T10:03:20;8.20;99.90
11087;DHT22;5597;47.588;9.642;2022-12-24T10:08:49;8.20;99.90
11087;DHT22;5597;47.588;9.642;2022-12-24T10:17:25;8.20;99.90
11087;DHT22;5597;47.588;9.642;2022-12-24T10:25:40;8.20;99.90
11087;DHT22;5597;47.588;9.642;2022-12-24T10:28:14;8.20;99.90
11087;DHT22;5597;47.588;9.642;2022-12-24T10:30:41;8.20;99.90
11087;DHT22;5597;47.588;9.642;2022-12-24T10:33:24;8.30;99.90
11087;DHT22;5597;47.588;9.642;2022-12-24T10:35:55;8.30;99.90
11087;DHT22;5597;47.588;9.642;2022-12-24T10:38:22;8.30;99.90
11087;DHT22;5597;47.588;9.642;2022-12-24T10:40:55;8.30;99.90
11087;DHT22;5597;47.588;9.642;2022-12-24T10:43:27;8.30;99.90
11087;DHT22;5597;47.588;9.642;2022-12-24T10:46:17;8.40;99.90
11087;DHT22;5597;47.588;9.642;2022-12-24T10:48:59;8.40;99.90
11087;DHT22;5597;47.588;9.642;2022-12-24T10:51:55;8.40;99.90
11087;DHT22;5597;47.588;9.642;2022-12-24T10:54:24;8.50;99.90
11087;DHT22;5597;47.588;9.642;2022-12-24T10:56:58;8.50;99.90
11087;DHT22;5597;47.588;9.642;2022-12-24T10:59:35;8.60;99.90
11087;DHT22;5597;47.588;9.642;2022-12-24T11:02:34;8.60;99.90
11087;DHT22;5597;47.588;9.642;2022-12-24T11:05:01;8.60;99.90
11087;DHT22;5597;47.588;9.642;2022-12-24T11:07:28;8.70;99.90
11087;DHT22;5597;47.588;9.642;2022-12-24T11:10:05;8.70;99.90
11087;DHT22;5597;47.588;9.642;2022-12-24T11:12:34;8.70;99.90
11087;DHT22;5597;47.588;9.642;2022-12-24T11:17:30;8.70;99.90
11087;DHT22;5597;47.588;9.642;2022-12-24T11:19:56;8.70;99.90
11087;DHT22;5597;47.588;9.642;2022-12-24T11:22:28;8.80;99.90
11087;DHT22;5597;47.588;9.642;2022-12-24T11:25:27;8.80;99.90
11087;DHT22;5597;47.588;9.642;2022-12-24T11:27:54;8.80;99.90
11087;DHT22;5597;47.588;9.642;2022-12-24T11:30:29;8.80;99.90
11087;DHT22;5597;47.588;9.642;2022-12-24T11:35:27;8.80;99.90
11087;DHT22;5597;47.588;9.642;2022-12-24T11:40:47;8.80;99.90
11087;DHT22;5597;47.588;9.642;2022-12-24T11:43:20;8.70;99.90
11087;DHT22;5597;47.588;9.642;2022-12-24T11:45:54;8.70;99.90
11087;DHT22;5597;47.588;9.642;2022-12-24T11:48:29;8.70;99.90
11087;DHT22;5597;47.588;9.642;2022-12-24T11:51:01;8.70;99.90
11087;DHT22;5597;47.588;9.642;2022-12-24T11:56:43;8.80;99.90
11087;DHT22;5597;47.588;9.642;2022-12-24T11:59:20;8.80;99.90
11087;DHT22;5597;47.588;9.642;2022-12-24T12:04:43;8.80;99.90
11087;DHT22;5597;47.588;9.642;2022-12-24T12:07:17;8.80;99.90
11087;DHT22;5597;47.588;9.642;2022-12-24T12:09:49;8.80;99.90
11087;DHT22;5597;47.588;9.642;2022-12-24T12:12:27;8.80;99.90
11087;DHT22;5597;47.588;9.642;2022-12-24T12:15:00;8.80;99.90
11087;DHT22;5597;47.588;9.642;2022-12-24T12:22:44;8.90;99.90
11087;DHT22;5597;47.588;9.642;2022-12-24T12:27:55;8.90;99.90
11087;DHT22;5597;47.588;9.642;2022-12-24T12:30:24;8.90;99.90
11087;DHT22;5597;47.588;9.642;2022-12-24T12:33:02;8.90;99.90
11087;DHT22;5597;47.588;9.642;2022-12-24T12:35:35;8.90;99.90
11087;DHT22;5597;47.588;9.642;2022-12-24T12:38:08;9.00;99.90
11087;DHT22;5597;47.588;9.642;2022-12-24T12:54:51;9.00;99.90
11087;DHT22;5597;47.588;9.642;2022-12-24T12:57:23;9.00;99.90
11087;DHT22;5597;47.588;9.642;2022-12-24T13:00:01;9.00;99.90
11087;DHT22;5597;47.588;9.642;2022-12-24T13:05:58;9.10;99.90
11087;DHT22;5597;47.588;9.642;2022-12-24T13:21:48;9.30;99.90
11087;DHT22;5597;47.588;9.642;2022-12-24T13:24:21;9.30;99.90
11087;DHT22;5597;47.588;9.642;2022-12-24T13:27:14;9.20;99.90
11087;DHT22;5597;47.588;9.642;2022-12-24T13:34:51;9.30;99.90
11087;DHT22;5597;47.588;9.642;2022-12-24T13:37:37;9.30;99.90
11087;DHT22;5597;47.588;9.642;2022-12-24T13:50:39;9.20;99.90
11087;DHT22;5597;47.588;9.642;2022-12-24T13:56:39;9.10;99.90
11087;DHT22;5597;47.588;9.642;2022-12-24T13:58:46;9.00;99.90
11087;DHT22;5597;47.588;9.642;2022-12-24T14:01:20;9.00;99.90
11087;DHT22;5597;47.588;9.642;2022-12-24T14:03:51;9.00;99.90
11087;DHT22;5597;47.588;9.642;2022-12-24T14:06:23;8.90;99.90
11087;DHT22;5597;47.588;9.642;2022-12-24T14:08:56;8.90;99.90
11087;DHT22;5597;47.588;9.642;2022-12-24T14:11:26;8.90;99.90
11087;DHT22;5597;47.588;9.642;2022-12-24T14:14:15;8.90;99.90
11087;DHT22;5597;47.588;9.642;2022-12-24T14:16:42;8.90;99.90
11087;DHT22;5597;47.588;9.642;2022-12-24T14:19:16;8.90;99.90
11087;DHT22;5597;47.588;9.642;2022-12-24T14:21:51;8.90;99.90
11087;DHT22;5597;47.588;9.642;2022-12-24T14:24:40;8.90;99.90
11087;DHT22;5597;47.588;9.642;2022-12-24T14:27:27;8.80;99.90
11087;DHT22;5597;47.588;9.642;2022-12-24T14:30:07;8.80;99.90
11087;DHT22;5597;47.588;9.642;2022-12-24T14:32:38;8.80;99.90
11087;DHT22;5597;47.588;9.642;2022-12-24T14:35:26;8.80;99.90
11087;DHT22;5597;47.588;9.642;2022-12-24T14:38:14;8.80;99.90
11087;DHT22;5597;47.588;9.642;2022-12-24T14:40:53;8.80;99.90
11087;DHT22;5597;47.588;9.642;2022-12-24T14:43:49;8.70;99.90
11087;DHT22;5597;47.588;9.642;2022-12-24T14:48:59;8.70;99.90
11087;DHT22;5597;47.588;9.642;2022-12-24T14:59:57;8.60;99.90
11087;DHT22;5597;47.588;9.642;2022-12-24T15:07:38;8.50;99.90
11087;DHT22;5597;47.588;9.642;2022-12-24T15:10:06;8.40;99.90
11087;DHT22;5597;47.588;9.642;2022-12-24T15:12:39;8.40;99.90
11087;DHT22;5597;47.588;9.642;2022-12-24T15:15:12;8.40;99.90
11087;DHT22;5597;47.588;9.642;2022-12-24T15:17:39;8.40;99.90
11087;DHT22;5597;47.588;9.642;2022-12-24T15:20:09;8.40;99.90
11087;DHT22;5597;47.588;9.642;2022-12-24T15:22:35;8.40;99.90
11087;DHT22;5597;47.588;9.642;2022-12-24T15:25:01;8.40;99.90
11087;DHT22;5597;47.588;9.642;2022-12-24T15:27:32;8.40;99.90
11087;DHT22;5597;47.588;9.642;2022-12-24T15:30:15;8.30;99.90
11087;DHT22;5597;47.588;9.642;2022-12-24T15:32:41;8.30;99.90
11087;DHT22;5597;47.588;9.642;2022-12-24T15:35:34;8.30;99.90
11087;DHT22;5597;47.588;9.642;2022-12-24T15:38:05;8.20;99.90
11087;DHT22;5597;47.588;9.642;2022-12-24T15:40:31;8.20;99.90
11087;DHT22;5597;47.588;9.642;2022-12-24T15:42:59;8.20;99.90
11087;DHT22;5597;47.588;9.642;2022-12-24T15:45:30;8.20;99.90
11087;DHT22;5597;47.588;9.642;2022-12-24T15:48:05;8.20;99.90
11087;DHT22;5597;47.588;9.642;2022-12-24T15:50:34;8.10;99.90
11087;DHT22;5597;47.588;9.642;2022-12-24T15:53:06;8.10;99.90
11087;DHT22;5597;47.588;9.642;2022-12-24T15:55:38;8.10;99.90
11087;DHT22;5597;47.588;9.642;2022-12-24T15:58:26;8.10;99.90
11087;DHT22;5597;47.588;9.642;2022-12-24T16:03:39;8.10;99.90
11087;DHT22;5597;47.588;9.642;2022-12-24T16:06:09;8.10;99.90
11087;DHT22;5597;47.588;9.642;2022-12-24T16:08:39;8.00;99.90
11087;DHT22;5597;47.588;9.642;2022-12-24T16:11:17;8.10;99.90
11087;DHT22;5597;47.588;9.642;2022-12-24T16:16:18;8.10;99.90
11087;DHT22;5597;47.588;9.642;2022-12-24T16:18:50;8.00;99.90
11087;DHT22;5597;47.588;9.642;2022-12-24T16:21:23;8.00;99.90
11087;DHT22;5597;47.588;9.642;2022-12-24T16:23:52;8.00;99.90
11087;DHT22;5597;47.588;9.642;2022-12-24T16:26:19;8.00;99.90
11087;DHT22;5597;47.588;9.642;2022-12-24T16:28:45;8.00;99.90
11087;DHT22;5597;47.588;9.642;2022-12-24T16:31:18;8.00;99.90
11087;DHT22;5597;47.588;9.642;2022-12-24T16:33:54;8.00;99.90
11087;DHT22;5597;47.588;9.642;2022-12-24T16:36:20;8.00;99.90
11087;DHT22;5597;47.588;9.642;2022-12-24T16:38:45;8.00;99.90
11087;DHT22;5597;47.588;9.642;2022-12-24T16:41:46;8.00;99.90
11087;DHT22;5597;47.588;9.642;2022-12-24T16:44:31;8.00;99.90
11087;DHT22;5597;47.588;9.642;2022-12-24T16:46:57;8.00;99.90
11087;DHT22;5597;47.588;9.642;2022-12-24T16:49:24;7.90;99.90
11087;DHT22;5597;47.588;9.642;2022-12-24T16:51:50;8.00;99.90
11087;DHT22;5597;47.588;9.642;2022-12-24T16:54:16;8.00;99.90
11087;DHT22;5597;47.588;9.642;2022-12-24T16:56:43;8.00;99.90
11087;DHT22;5597;47.588;9.642;2022-12-24T16:59:20;7.90;99.90
11087;DHT22;5597;47.588;9.642;2022-12-24T17:01:47;7.90;99.90
11087;DHT22;5597;47.588;9.642;2022-12-24T17:04:13;7.90;99.90
11087;DHT22;5597;47.588;9.642;2022-12-24T17:06:42;7.90;99.90
11087;DHT22;5597;47.588;9.642;2022-12-24T17:09:10;7.90;99.90
11087;DHT22;5597;47.588;9.642;2022-12-24T17:11:36;7.90;99.90
11087;DHT22;5597;47.588;9.642;2022-12-24T17:14:03;7.90;99.90
11087;DHT22;5597;47.588;9.642;2022-12-24T17:16:28;7.90;99.90
11087;DHT22;5597;47.588;9.642;2022-12-24T17:18:54;7.90;99.90
11087;DHT22;5597;47.588;9.642;2022-12-24T17:21:20;7.90;99.90
11087;DHT22;5597;47.588;9.642;2022-12-24T17:23:46;7.90;99.90
11087;DHT22;5597;47.588;9.642;2022-12-24T17:26:13;7.90;99.90
11087;DHT22;5597;47.588;9.642;2022-12-24T17:28:41;7.90;99.90
11087;DHT22;5597;47.588;9.642;2022-12-24T17:31:17;7.90;99.90
11087;DHT22;5597;47.588;9.642;2022-12-24T17:33:42;7.90;99.90
11087;DHT22;5597;47.588;9.642;2022-12-24T17:36:08;7.90;99.90
11087;DHT22;5597;47.588;9.642;2022-12-24T17:38:34;7.90;99.90
11087;DHT22;5597;47.588;9.642;2022-12-24T17:41:10;7.90;99.90
11087;DHT22;5597;47.588;9.642;2022-12-24T17:43:36;7.90;99.90
11087;DHT22;5597;47.588;9.642;2022-12-24T17:46:06;8.00;99.90
11087;DHT22;5597;47.588;9.642;2022-12-24T17:48:32;8.00;99.90
11087;DHT22;5597;47.588;9.642;2022-12-24T17:51:05;7.90;99.90
11087;DHT22;5597;47.588;9.642;2022-12-24T17:53:35;7.90;99.90
11087;DHT22;5597;47.588;9.642;2022-12-24T17:56:01;8.00;99.90
11087;DHT22;5597;47.588;9.642;2022-12-24T17:58:28;8.00;99.90
11087;DHT22;5597;47.588;9.642;2022-12-24T18:00:54;7.90;99.90
11087;DHT22;5597;47.588;9.642;2022-12-24T18:03:20;7.90;99.90
11087;DHT22;5597;47.588;9.642;2022-12-24T18:05:46;8.00;99.90
11087;DHT22;5597;47.588;9.642;2022-12-24T18:08:12;7.90;99.90
11087;DHT22;5597;47.588;9.642;2022-12-24T18:10:37;7.90;99.90
11087;DHT22;5597;47.588;9.642;2022-12-24T18:13:03;7.90;99.90
11087;DHT22;5597;47.588;9.642;2022-12-24T18:15:33;7.90;99.90
11087;DHT22;5597;47.588;9.642;2022-12-24T18:17:59;7.90;99.90
11087;DHT22;5597;47.588;9.642;2022-12-24T18:20:27;7.90;99.90
11087;DHT22;5597;47.588;9.642;2022-12-24T18:22:53;7.90;99.90
11087;DHT22;5597;47.588;9.642;2022-12-24T18:25:19;7.90;99.90
11087;DHT22;5597;47.588;9.642;2022-12-24T18:27:45;7.90;99.90
11087;DHT22;5597;47.588;9.642;2022-12-24T18:30:11;8.00;99.90
11087;DHT22;5597;47.588;9.642;2022-12-24T18:32:37;7.90;99.90